Time;durP1;ratioP1;P1;durP2;ratioP2;P2;SDS_P1;SDS_P2;PMS_P1;PMS_P2;Temp;Humidity;BMP_temperature;BMP_pressure;BME280_temperature;BME280_humidity;BME280_pressure;Samples;Min_cycle;Max_cycle;Signal;HPM_P1;HPM_P2
2020/12/28 00:02:23;;;;;;;7.93;3.27;;;3.40;93.70;;;;;;5011651;28;20390;-75
2020/12/28 00:04:49;;;;;;;6.77;3.40;;;3.40;93.70;;;;;;5013042;28;20133;-76
2020/12/28 00:07:15;;;;;;;6.53;3.30;;;3.40;93.70;;;;;;5012391;28;20180;-76
2020/12/28 00:09:42;;;;;;;6.30;3.10;;;3.40;93.70;;;;;;5012356;28;20042;-76
2020/12/28 00:12:09;;;;;;;6.17;3.20;;;3.40;93.70;;;;;;5012875;28;20053;-75
2020/12/28 00:14:35;;;;;;;5.73;2.63;;;3.50;93.70;;;;;;5013185;28;20085;-75
2020/12/28 00:17:00;;;;;;;8.70;3.37;;;3.50;93.70;;;;;;5012169;28;20431;-76
2020/12/28 00:19:26;;;;;;;6.57;3.03;;;3.50;93.60;;;;;;5013157;28;20104;-75
2020/12/28 00:21:52;;;;;;;7.90;3.40;;;3.50;93.60;;;;;;4995736;28;20088;-75
2020/12/28 00:24:18;;;;;;;7.00;2.60;;;3.50;93.60;;;;;;5012870;28;20038;-75
2020/12/28 00:26:45;;;;;;;7.63;2.93;;;3.50;93.60;;;;;;5013402;28;20574;-76
2020/12/28 00:29:13;;;;;;;5.83;2.83;;;3.50;93.60;;;;;;5013292;28;20042;-76
2020/12/28 00:31:43;;;;;;;5.77;2.63;;;3.50;93.60;;;;;;5011233;28;20053;-76
2020/12/28 00:34:09;;;;;;;5.87;2.70;;;3.50;93.60;;;;;;5011872;28;20503;-75
2020/12/28 00:36:36;;;;;;;7.23;2.97;;;3.50;93.80;;;;;;5012487;28;20169;-75
2020/12/28 00:39:03;;;;;;;5.53;2.17;;;3.50;93.60;;;;;;5011675;28;20096;-75
2020/12/28 00:41:29;;;;;;;4.87;2.70;;;3.60;93.60;;;;;;5012759;28;20057;-75
2020/12/28 00:43:54;;;;;;;6.13;2.80;;;3.50;93.60;;;;;;5012687;28;20061;-76
2020/12/28 00:46:23;;;;;;;5.77;2.97;;;3.60;93.60;;;;;;5012876;28;20037;-75
2020/12/28 00:48:48;;;;;;;5.87;2.67;;;3.60;93.80;;;;;;5012648;28;20403;-76
2020/12/28 00:51:15;;;;;;;6.43;3.00;;;3.60;93.60;;;;;;5011547;28;20022;-75
2020/12/28 00:53:41;;;;;;;5.63;2.50;;;3.60;93.60;;;;;;5012133;28;20066;-75
2020/12/28 00:56:09;;;;;;;6.27;2.97;;;3.60;93.50;;;;;;5011274;28;20033;-75
2020/12/28 00:58:36;;;;;;;5.63;2.40;;;3.60;93.50;;;;;;4995208;28;20129;-76
2020/12/28 01:01:05;;;;;;;5.63;2.60;;;3.60;93.50;;;;;;5012212;28;20045;-76
2020/12/28 01:03:31;;;;;;;5.83;2.80;;;3.60;93.50;;;;;;5012476;28;20033;-76
2020/12/28 01:06:26;;;;;;;6.70;3.10;;;3.60;93.50;;;;;;5006466;28;20038;-76
2020/12/28 01:09:03;;;;;;;6.20;2.80;;;3.60;93.40;;;;;;5011222;28;20037;-76
2020/12/28 01:11:29;;;;;;;5.87;2.87;;;3.60;93.40;;;;;;5010903;28;20146;-76
2020/12/28 01:14:00;;;;;;;5.75;2.60;;;3.60;93.40;;;;;;4995476;28;20042;-75
2020/12/28 01:16:27;;;;;;;5.40;2.50;;;3.60;93.40;;;;;;5010224;28;20060;-76
2020/12/28 01:18:54;;;;;;;6.17;2.50;;;3.70;93.40;;;;;;5011015;28;20540;-76
2020/12/28 01:21:25;;;;;;;6.77;2.50;;;3.70;93.50;;;;;;4995141;28;20030;-76
2020/12/28 01:23:52;;;;;;;6.40;2.50;;;3.70;93.40;;;;;;4994495;28;20439;-75
2020/12/28 01:26:20;;;;;;;6.40;2.30;;;3.70;93.40;;;;;;5010813;28;20030;-76
2020/12/28 01:28:52;;;;;;;5.67;2.30;;;3.70;93.30;;;;;;5010595;28;20029;-76
2020/12/28 01:31:18;;;;;;;5.37;2.50;;;3.70;93.30;;;;;;5010687;28;20038;-76
2020/12/28 01:34:05;;;;;;;6.03;2.43;;;3.70;93.30;;;;;;5007046;28;20033;-76
2020/12/28 01:36:37;;;;;;;5.10;2.40;;;3.70;93.30;;;;;;4995532;28;20045;-76
2020/12/28 01:39:11;;;;;;;7.20;2.50;;;3.70;93.30;;;;;;5010520;28;20026;-76
2020/12/28 01:41:37;;;;;;;4.40;1.80;;;3.70;93.30;;;;;;5012432;28;20033;-76
2020/12/28 01:44:03;;;;;;;5.63;2.20;;;3.70;93.30;;;;;;5010171;28;20041;-77
2020/12/28 01:46:31;;;;;;;5.07;2.40;;;3.70;93.50;;;;;;4978418;28;20037;-76
2020/12/28 01:48:57;;;;;;;4.97;2.33;;;3.70;93.20;;;;;;5010520;28;20438;-76
2020/12/28 01:51:25;;;;;;;5.00;2.30;;;3.70;93.20;;;;;;5009800;28;20457;-76
2020/12/28 01:53:52;;;;;;;5.03;1.90;;;3.70;93.20;;;;;;4994011;28;20546;-75
2020/12/28 01:56:34;;;;;;;5.90;2.10;;;3.80;93.20;;;;;;5010187;28;20113;-76
2020/12/28 01:59:00;;;;;;;5.90;2.20;;;3.80;93.20;;;;;;5010304;28;20038;-76
2020/12/28 02:01:38;;;;;;;5.27;2.30;;;3.80;93.20;;;;;;5009744;28;20037;-75
2020/12/28 02:04:05;;;;;;;4.10;1.90;;;3.80;93.20;;;;;;5010375;28;20038;-76
2020/12/28 02:06:37;;;;;;;4.97;2.10;;;3.80;93.10;;;;;;4993929;28;20518;-76
2020/12/28 02:09:05;;;;;;;4.57;1.90;;;3.80;93.40;;;;;;5010103;28;20042;-76
2020/12/28 02:11:32;;;;;;;4.53;2.00;;;3.80;93.10;;;;;;5009439;28;20052;-76
2020/12/28 02:13:59;;;;;;;4.30;1.90;;;3.90;93.10;;;;;;4993477;28;20042;-75
2020/12/28 02:16:47;;;;;;;4.07;2.00;;;3.90;93.10;;;;;;5009326;28;20026;-76
2020/12/28 02:19:18;;;;;;;4.45;1.90;;;3.90;93.10;;;;;;4994453;28;20509;-76
2020/12/28 02:21:48;;;;;;;3.93;1.87;;;3.90;93.00;;;;;;4977700;28;20116;-76
2020/12/28 02:24:19;;;;;;;4.53;1.90;;;3.90;93.00;;;;;;5009758;28;20034;-76
2020/12/28 02:26:47;;;;;;;4.40;1.85;;;3.90;93.00;;;;;;5009523;28;20554;-76
2020/12/28 02:29:13;;;;;;;4.37;2.00;;;3.80;92.90;;;;;;5010778;28;20062;-76
2020/12/28 02:31:40;;;;;;;4.77;2.20;;;3.90;93.00;;;;;;5009479;28;20084;-76
2020/12/28 02:34:22;;;;;;;5.43;2.20;;;3.90;92.90;;;;;;4995467;28;20431;-76
2020/12/28 02:37:14;;;;;;;5.30;2.10;;;3.80;92.90;;;;;;5008430;28;20030;-76
2020/12/28 02:39:55;;;;;;;5.87;1.87;;;3.80;92.80;;;;;;5011225;28;20065;-75
2020/12/28 02:42:22;;;;;;;5.17;2.20;;;3.80;92.90;;;;;;5009207;28;20040;-76
2020/12/28 02:45:06;;;;;;;5.23;2.27;;;3.80;92.90;;;;;;5010888;28;20088;-75
2020/12/28 02:47:51;;;;;;;4.27;1.93;;;3.80;92.90;;;;;;5009588;28;20514;-76
2020/12/28 02:50:35;;;;;;;5.03;2.40;;;3.70;93.00;;;;;;5010805;28;20045;-75
2020/12/28 02:53:19;;;;;;;5.20;2.17;;;3.70;93.00;;;;;;5009572;28;20061;-76
2020/12/28 02:56:03;;;;;;;5.10;2.00;;;3.70;93.00;;;;;;5010423;28;20049;-76
2020/12/28 02:58:48;;;;;;;5.30;2.97;;;3.70;93.10;;;;;;5010622;28;20122;-75
2020/12/28 03:01:35;;;;;;;4.10;1.77;;;3.80;93.40;;;;;;5009980;28;20109;-76
2020/12/28 03:04:19;;;;;;;4.83;2.10;;;3.80;93.20;;;;;;5010473;28;20084;-76
2020/12/28 03:07:03;;;;;;;5.07;1.97;;;3.80;93.20;;;;;;4995715;28;20168;-75
2020/12/28 03:09:48;;;;;;;4.43;2.07;;;3.80;93.20;;;;;;5009940;28;20084;-75
2020/12/28 03:12:32;;;;;;;5.00;2.10;;;3.90;93.20;;;;;;5010315;28;20111;-75
2020/12/28 03:15:16;;;;;;;4.40;2.13;;;3.90;93.10;;;;;;5009051;28;20049;-75
2020/12/28 03:18:00;;;;;;;4.20;1.80;;;3.90;93.10;;;;;;5009652;28;20445;-76
2020/12/28 03:20:44;;;;;;;4.93;2.03;;;3.90;93.10;;;;;;5010581;28;20045;-76
2020/12/28 03:23:28;;;;;;;4.87;1.93;;;3.90;93.10;;;;;;5010058;28;20561;-75
2020/12/28 03:26:13;;;;;;;5.20;1.90;;;4.00;93.10;;;;;;5010362;28;20046;-76
2020/12/28 03:29:14;;;;;;;3.20;1.80;;;3.90;93.10;;;;;;5007725;28;20442;-75
2020/12/28 03:32:00;;;;;;;4.20;2.00;;;4.00;93.10;;;;;;5009931;28;20048;-75
2020/12/28 03:34:44;;;;;;;4.40;2.00;;;3.90;93.10;;;;;;5010287;28;20045;-75
2020/12/28 03:37:28;;;;;;;4.03;1.67;;;3.90;93.00;;;;;;5009142;28;20037;-75
2020/12/28 03:40:12;;;;;;;4.07;1.90;;;4.00;93.10;;;;;;5010722;28;20088;-76
2020/12/28 03:42:57;;;;;;;4.03;1.77;;;4.00;93.10;;;;;;5013631;28;20084;-75
2020/12/28 03:45:48;;;;;;;4.03;1.90;;;4.00;93.10;;;;;;5004589;28;20113;-75
2020/12/28 03:48:33;;;;;;;3.90;1.87;;;4.00;93.10;;;;;;5014132;28;20037;-75
2020/12/28 03:51:17;;;;;;;5.17;1.90;;;4.10;93.10;;;;;;5013656;28;20045;-75
2020/12/28 03:54:02;;;;;;;4.57;1.80;;;4.10;93.10;;;;;;5013467;28;20041;-75
2020/12/28 03:56:46;;;;;;;4.07;1.70;;;4.10;93.10;;;;;;5014129;28;20037;-75
2020/12/28 03:59:30;;;;;;;4.70;1.93;;;4.10;93.30;;;;;;5013759;28;20044;-76
2020/12/28 04:02:14;;;;;;;4.57;2.07;;;4.10;93.00;;;;;;5013102;28;20044;-76
2020/12/28 04:04:59;;;;;;;4.53;2.00;;;4.10;93.00;;;;;;5013699;28;20068;-76
2020/12/28 04:07:43;;;;;;;4.33;1.87;;;4.10;93.00;;;;;;5012488;28;20549;-76
2020/12/28 04:10:47;;;;;;;6.03;2.10;;;4.10;93.00;;;;;;5011079;28;20120;-75
2020/12/28 04:13:36;;;;;;;4.57;2.03;;;4.20;93.00;;;;;;5004905;28;20043;-74
2020/12/28 04:16:02;;;;;;;4.13;1.90;;;4.20;93.00;;;;;;5012452;28;20040;-76
2020/12/28 04:18:27;;;;;;;4.33;1.80;;;4.20;93.00;;;;;;5013442;28;20030;-76
2020/12/28 04:20:53;;;;;;;4.23;1.80;;;4.20;93.00;;;;;;5011926;28;20410;-75
2020/12/28 04:23:19;;;;;;;4.83;2.10;;;4.20;92.90;;;;;;5013185;28;20446;-75
2020/12/28 04:25:44;;;;;;;5.37;2.17;;;4.20;92.90;;;;;;5011688;28;20044;-76
2020/12/28 04:28:10;;;;;;;4.50;1.87;;;4.20;92.90;;;;;;5012039;28;20041;-75
2020/12/28 04:30:36;;;;;;;4.10;1.87;;;4.20;92.90;;;;;;5013399;28;20084;-76
2020/12/28 04:33:01;;;;;;;4.67;1.90;;;4.20;92.90;;;;;;5011109;28;20041;-75
2020/12/28 04:35:27;;;;;;;6.30;2.00;;;4.20;92.90;;;;;;5013063;28;20038;-76
2020/12/28 04:37:53;;;;;;;4.60;2.00;;;4.20;92.90;;;;;;5012854;28;20093;-76
2020/12/28 04:40:18;;;;;;;4.03;1.80;;;4.20;92.90;;;;;;5013239;28;20406;-76
2020/12/28 04:42:44;;;;;;;4.63;1.93;;;4.10;92.80;;;;;;5012825;28;20026;-76
2020/12/28 04:45:11;;;;;;;4.90;1.80;;;4.10;92.70;;;;;;5012453;28;20061;-76
2020/12/28 04:47:37;;;;;;;4.57;1.93;;;4.10;92.70;;;;;;5012893;28;20038;-75
2020/12/28 04:50:05;;;;;;;5.53;1.80;;;4.10;92.70;;;;;;5012739;28;20204;-76
2020/12/28 04:52:31;;;;;;;3.70;1.80;;;4.10;92.90;;;;;;5011729;28;20103;-75
2020/12/28 04:54:58;;;;;;;4.60;1.93;;;4.10;93.00;;;;;;5012675;28;20042;-75
2020/12/28 04:57:24;;;;;;;4.60;1.73;;;4.10;93.00;;;;;;5011137;28;20096;-76
2020/12/28 04:59:56;;;;;;;4.53;2.00;;;4.10;93.10;;;;;;5012874;28;20038;-75
2020/12/28 05:02:25;;;;;;;3.67;1.70;;;4.10;93.10;;;;;;5012115;28;20054;-75
2020/12/28 05:04:51;;;;;;;3.50;1.40;;;4.10;93.00;;;;;;5012373;28;20041;-76
2020/12/28 05:07:17;;;;;;;4.03;1.90;;;4.10;93.10;;;;;;5012438;28;20037;-74
2020/12/28 05:09:43;;;;;;;4.47;1.80;;;4.20;93.10;;;;;;5011280;28;20168;-76
2020/12/28 05:12:09;;;;;;;3.40;1.50;;;4.20;93.10;;;;;;5012143;28;20132;-76
2020/12/28 05:14:35;;;;;;;3.43;1.63;;;4.20;93.10;;;;;;5011570;28;20125;-76
2020/12/28 05:17:02;;;;;;;3.47;1.43;;;4.20;93.10;;;;;;5012378;28;20627;-76
2020/12/28 05:19:28;;;;;;;3.80;1.40;;;4.30;93.10;;;;;;5012046;28;20050;-75
2020/12/28 05:21:55;;;;;;;2.87;1.40;;;4.30;93.10;;;;;;5012162;28;20038;-76
2020/12/28 05:24:21;;;;;;;3.80;1.50;;;4.30;93.10;;;;;;5012137;28;20038;-76
2020/12/28 05:26:48;;;;;;;3.07;1.40;;;4.30;93.10;;;;;;5011861;28;20116;-76
2020/12/28 05:29:22;;;;;;;3.73;1.30;;;4.30;93.10;;;;;;5018811;28;20037;-76
2020/12/28 05:31:50;;;;;;;2.83;1.30;;;4.40;93.10;;;;;;5014201;28;20558;-75
2020/12/28 05:34:19;;;;;;;2.47;1.23;;;4.40;93.00;;;;;;5021787;28;20037;-76
2020/12/28 05:36:49;;;;;;;2.83;1.20;;;4.40;93.00;;;;;;5025881;28;20487;-75
2020/12/28 05:39:19;;;;;;;2.30;1.20;;;4.40;93.00;;;;;;5021814;28;20045;-75
2020/12/28 05:42:10;;;;;;;4.27;1.50;;;4.40;92.90;;;;;;5031064;28;20033;-73
2020/12/28 05:44:37;;;;;;;2.77;1.40;;;4.40;92.90;;;;;;5026938;28;20029;-76
2020/12/28 05:47:14;;;;;;;3.10;1.50;;;4.40;92.90;;;;;;5022897;28;20073;-75
2020/12/28 05:49:41;;;;;;;3.63;1.53;;;4.40;92.90;;;;;;5031673;28;20044;-75
2020/12/28 05:52:09;;;;;;;3.03;1.50;;;4.40;92.90;;;;;;5030824;28;20045;-76
2020/12/28 05:54:36;;;;;;;3.73;1.53;;;4.40;92.90;;;;;;5030091;28;20402;-75
2020/12/28 05:57:03;;;;;;;3.63;1.40;;;4.40;92.80;;;;;;5039377;28;20048;-75
2020/12/28 05:59:31;;;;;;;4.57;1.90;;;4.30;92.80;;;;;;5019313;28;20088;-76
2020/12/28 06:01:58;;;;;;;3.40;1.63;;;4.40;92.80;;;;;;5019470;28;20042;-76
2020/12/28 06:04:24;;;;;;;3.43;1.63;;;4.30;92.80;;;;;;5028750;28;20049;-75
2020/12/28 06:06:57;;;;;;;4.73;1.70;;;4.30;92.70;;;;;;5017975;28;20049;-75
2020/12/28 06:09:23;;;;;;;3.43;1.43;;;4.30;92.70;;;;;;5020735;28;20045;-75
2020/12/28 06:11:49;;;;;;;3.97;1.63;;;4.30;92.70;;;;;;5019322;28;20045;-76
2020/12/28 06:14:19;;;;;;;3.80;1.73;;;4.20;92.70;;;;;;5027622;28;20038;-75
2020/12/28 06:16:46;;;;;;;4.20;1.80;;;4.20;92.70;;;;;;5022528;28;20050;-76
2020/12/28 06:19:22;;;;;;;5.57;2.50;;;4.20;92.70;;;;;;5021374;28;20049;-76
2020/12/28 06:21:48;;;;;;;5.43;1.87;;;4.20;92.60;;;;;;5030621;28;20509;-76
2020/12/28 06:24:31;;;;;;;6.77;2.73;;;4.10;92.60;;;;;;5029478;28;20068;-75
2020/12/28 06:27:05;;;;;;;6.73;3.20;;;4.10;92.60;;;;;;5023527;28;20377;-76
2020/12/28 06:29:31;;;;;;;12.03;6.23;;;4.10;92.60;;;;;;5011580;28;20030;-75
2020/12/28 06:31:57;;;;;;;9.40;4.03;;;4.00;92.50;;;;;;5011680;28;20474;-75
2020/12/28 06:34:23;;;;;;;7.77;3.80;;;3.90;92.50;;;;;;5005576;28;20132;-76
2020/12/28 06:36:59;;;;;;;4.97;1.93;;;3.90;92.50;;;;;;5020836;28;20065;-75
2020/12/28 06:39:25;;;;;;;9.77;4.93;;;3.90;92.60;;;;;;5015678;28;20030;-76
2020/12/28 06:41:50;;;;;;;7.90;3.80;;;3.90;92.60;;;;;;5025171;28;20574;-76
2020/12/28 06:44:26;;;;;;;5.83;2.57;;;3.90;92.50;;;;;;5026052;28;20092;-75
2020/12/28 06:46:53;;;;;;;5.00;1.87;;;3.90;92.50;;;;;;5020869;28;20486;-75
2020/12/28 06:49:19;;;;;;;5.63;2.17;;;3.80;92.40;;;;;;5030776;28;20056;-76
2020/12/28 06:51:45;;;;;;;4.30;1.80;;;3.80;92.40;;;;;;5030627;28;20502;-76
2020/12/28 06:54:10;;;;;;;6.57;2.37;;;3.80;92.40;;;;;;5030308;28;20037;-76
2020/12/28 06:56:36;;;;;;;5.70;2.00;;;3.80;92.50;;;;;;5036387;28;20128;-76
2020/12/28 06:59:02;;;;;;;4.53;1.73;;;3.80;92.20;;;;;;5015408;28;20468;-76
2020/12/28 07:01:29;;;;;;;5.13;1.87;;;3.80;92.10;;;;;;5005362;28;20399;-76
2020/12/28 07:03:55;;;;;;;5.93;2.13;;;3.70;92.00;;;;;;5014986;28;20045;-76
2020/12/28 07:06:21;;;;;;;4.17;1.50;;;3.70;91.90;;;;;;5017411;28;20034;-76
2020/12/28 07:08:47;;;;;;;5.43;1.87;;;3.60;91.80;;;;;;5009893;28;20505;-75
2020/12/28 07:11:20;;;;;;;7.53;3.20;;;3.60;91.80;;;;;;5021096;28;20038;-76
2020/12/28 07:13:47;;;;;;;5.87;2.20;;;3.50;91.70;;;;;;5017291;28;20072;-75
2020/12/28 07:16:13;;;;;;;6.93;2.47;;;3.50;91.60;;;;;;5027552;28;20189;-76
2020/12/28 07:18:39;;;;;;;7.20;2.20;;;3.40;91.60;;;;;;5020708;28;20048;-76
2020/12/28 07:21:05;;;;;;;5.47;2.10;;;3.40;91.60;;;;;;5022826;28;20103;-76
2020/12/28 07:23:32;;;;;;;6.63;2.53;;;3.40;91.70;;;;;;5013852;28;20053;-76
2020/12/28 07:26:09;;;;;;;6.27;2.30;;;3.30;91.70;;;;;;5024153;28;20034;-75
2020/12/28 07:28:36;;;;;;;6.00;1.97;;;3.40;91.70;;;;;;4994414;28;20049;-76
2020/12/28 07:31:04;;;;;;;6.20;2.40;;;3.40;91.70;;;;;;5008133;28;20041;-76
2020/12/28 07:33:31;;;;;;;5.73;2.10;;;3.50;91.70;;;;;;5003310;28;20029;-75
2020/12/28 07:36:04;;;;;;;6.90;2.00;;;3.50;91.60;;;;;;5020330;28;20423;-76
2020/12/28 07:38:30;;;;;;;11.30;6.17;;;3.50;91.50;;;;;;5002523;28;20386;-76
2020/12/28 07:40:56;;;;;;;7.33;3.23;;;3.50;91.60;;;;;;5025496;28;20052;-76
2020/12/28 07:43:21;;;;;;;7.63;2.93;;;3.50;91.40;;;;;;5033705;28;20033;-75
2020/12/28 07:45:47;;;;;;;6.70;2.60;;;3.50;91.20;;;;;;5033250;28;20036;-75
2020/12/28 07:48:16;;;;;;;6.90;2.70;;;3.50;91.20;;;;;;5065900;28;20465;-75
2020/12/28 07:50:43;;;;;;;7.13;2.57;;;3.50;91.20;;;;;;5033966;28;20376;-75
2020/12/28 07:53:19;;;;;;;5.40;2.20;;;3.50;91.30;;;;;;5032972;28;20041;-76
2020/12/28 07:55:57;;;;;;;4.87;2.07;;;3.50;91.00;;;;;;5033569;28;20037;-75
2020/12/28 07:58:29;;;;;;;5.80;2.50;;;3.50;90.90;;;;;;5033533;28;20113;-75
2020/12/28 08:00:56;;;;;;;5.77;2.33;;;3.50;90.80;;;;;;5033884;28;20402;-76
2020/12/28 08:03:35;;;;;;;6.10;2.47;;;3.40;90.80;;;;;;5032956;28;20096;-75
2020/12/28 08:06:08;;;;;;;7.60;3.17;;;3.40;90.80;;;;;;5033413;28;20069;-75
2020/12/28 08:08:35;;;;;;;6.73;2.50;;;3.40;90.80;;;;;;5011475;28;20042;-75
2020/12/28 08:11:03;;;;;;;6.87;2.93;;;3.40;90.80;;;;;;5027268;28;20097;-75
2020/12/28 08:13:30;;;;;;;6.50;2.57;;;3.40;90.80;;;;;;5023051;28;20057;-75
2020/12/28 08:16:16;;;;;;;6.80;2.80;;;3.40;90.70;;;;;;5011724;28;20045;-75
2020/12/28 08:18:50;;;;;;;12.17;5.57;;;3.50;90.70;;;;;;5012591;28;20117;-75
2020/12/28 08:21:16;;;;;;;6.63;2.77;;;3.50;90.70;;;;;;5013304;28;20046;-75
2020/12/28 08:23:55;;;;;;;8.23;3.17;;;3.50;90.60;;;;;;5012486;28;20041;-75
2020/12/28 08:26:28;;;;;;;10.93;4.83;;;3.50;90.60;;;;;;5011963;28;20422;-75
2020/12/28 08:28:57;;;;;;;7.37;3.23;;;3.50;90.50;;;;;;5013158;28;20483;-75
2020/12/28 08:31:35;;;;;;;6.20;2.50;;;3.50;90.50;;;;;;5012198;28;20034;-75
2020/12/28 08:34:15;;;;;;;6.97;2.67;;;3.50;90.50;;;;;;5012814;28;20108;-75
2020/12/28 08:36:54;;;;;;;9.50;4.47;;;3.50;90.50;;;;;;5013279;28;20030;-75
2020/12/28 08:39:23;;;;;;;11.10;4.30;;;3.50;90.40;;;;;;5013029;28;20061;-75
2020/12/28 08:41:56;;;;;;;6.43;2.60;;;3.60;90.60;;;;;;5011728;28;20066;-75
2020/12/28 08:44:31;;;;;;;6.07;2.47;;;3.60;90.60;;;;;;5011249;28;20439;-75
2020/12/28 08:46:57;;;;;;;6.77;2.93;;;3.60;90.30;;;;;;5012939;28;20026;-75
2020/12/28 08:49:31;;;;;;;6.50;2.63;;;3.60;90.30;;;;;;5012775;28;20049;-75
2020/12/28 08:52:08;;;;;;;8.17;3.03;;;3.60;90.30;;;;;;5012458;28;20118;-75
2020/12/28 08:54:34;;;;;;;11.70;5.07;;;3.60;90.20;;;;;;4994694;28;20403;-75
2020/12/28 08:57:00;;;;;;;6.63;3.10;;;3.60;90.10;;;;;;5011481;28;20030;-75
2020/12/28 08:59:26;;;;;;;7.87;3.17;;;3.60;90.20;;;;;;5012374;28;20121;-75
2020/12/28 09:01:56;;;;;;;8.27;2.90;;;3.60;90.10;;;;;;5010990;28;20081;-75
2020/12/28 09:04:22;;;;;;;8.85;3.90;;;3.60;90.00;;;;;;5012182;28;20108;-75
2020/12/28 09:06:49;;;;;;;8.80;4.07;;;3.60;90.00;;;;;;5011233;28;20034;-75
2020/12/28 09:09:15;;;;;;;8.93;3.50;;;3.60;90.00;;;;;;5011168;28;20045;-75
2020/12/28 09:11:42;;;;;;;7.60;3.03;;;3.60;90.00;;;;;;4992528;28;20509;-75
2020/12/28 09:14:08;;;;;;;10.43;5.17;;;3.60;89.90;;;;;;4993931;28;20069;-75
2020/12/28 09:16:34;;;;;;;7.33;3.00;;;3.60;90.00;;;;;;5010430;28;20855;-75
2020/12/28 09:19:00;;;;;;;9.17;3.77;;;3.60;90.10;;;;;;5011274;28;20042;-75
2020/12/28 09:21:26;;;;;;;9.90;4.50;;;3.60;90.10;;;;;;5011955;28;20172;-75
2020/12/28 09:23:51;;;;;;;7.43;3.20;;;3.70;90.00;;;;;;4977853;28;20057;-75
2020/12/28 09:26:17;;;;;;;8.03;3.70;;;3.70;89.90;;;;;;5011301;28;20037;-75
2020/12/28 09:28:44;;;;;;;10.70;5.17;;;3.70;89.90;;;;;;5010824;28;20081;-75
2020/12/28 09:31:10;;;;;;;9.93;5.07;;;3.80;90.10;;;;;;5008617;28;25207;-75
2020/12/28 09:33:36;;;;;;;7.50;3.50;;;3.80;90.10;;;;;;5009854;28;20052;-75
2020/12/28 09:36:02;;;;;;;13.43;6.03;;;3.90;90.20;;;;;;4993728;28;20038;-75
2020/12/28 09:38:28;;;;;;;6.50;3.00;;;4.00;90.20;;;;;;4993991;28;20029;-75
2020/12/28 09:40:53;;;;;;;8.93;3.67;;;4.00;90.00;;;;;;5011854;28;20034;-75
2020/12/28 09:43:19;;;;;;;7.87;3.30;;;4.10;89.80;;;;;;5009939;28;20086;-75
2020/12/28 09:45:45;;;;;;;9.07;3.77;;;4.10;89.50;;;;;;5011673;28;20042;-75
2020/12/28 09:48:11;;;;;;;7.87;3.60;;;4.10;89.80;;;;;;5010310;28;20096;-75
2020/12/28 09:50:37;;;;;;;13.27;6.20;;;4.30;90.10;;;;;;5010561;28;20449;-75
2020/12/28 09:53:03;;;;;;;9.53;4.37;;;4.40;89.90;;;;;;5009575;28;20050;-74
2020/12/28 09:55:28;;;;;;;7.40;3.37;;;4.50;89.50;;;;;;5008768;28;20096;-75
2020/12/28 09:57:54;;;;;;;16.90;9.17;;;4.50;89.00;;;;;;5008985;28;20046;-75
2020/12/28 10:00:20;;;;;;;17.80;9.07;;;4.50;88.60;;;;;;5010041;28;20034;-74
2020/12/28 10:02:46;;;;;;;7.40;3.07;;;4.50;88.70;;;;;;5009664;28;20442;-75
2020/12/28 10:05:12;;;;;;;10.53;4.30;;;4.50;88.70;;;;;;5010087;28;20057;-74
2020/12/28 10:07:39;;;;;;;8.87;4.37;;;4.40;89.30;;;;;;5009681;28;20041;-75
2020/12/28 10:10:06;;;;;;;28.20;14.67;;;4.50;88.90;;;;;;5010988;28;20487;-75
2020/12/28 10:12:32;;;;;;;9.70;4.73;;;4.50;88.70;;;;;;5008575;28;20042;-75
2020/12/28 10:14:58;;;;;;;13.23;6.43;;;4.50;88.70;;;;;;5008885;28;20041;-75
2020/12/28 10:17:24;;;;;;;10.80;5.33;;;4.50;88.60;;;;;;4998462;28;20030;-75
2020/12/28 10:19:50;;;;;;;8.10;3.80;;;4.50;88.60;;;;;;5028151;28;20034;-74
2020/12/28 10:22:16;;;;;;;9.10;3.70;;;4.60;88.90;;;;;;5009934;28;20030;-75
2020/12/28 10:24:42;;;;;;;7.30;3.20;;;4.50;88.20;;;;;;5009052;28;20377;-75
2020/12/28 10:27:08;;;;;;;9.87;4.93;;;4.50;88.00;;;;;;5009900;28;20034;-75
2020/12/28 10:29:34;;;;;;;10.37;5.07;;;4.50;87.90;;;;;;5009948;28;20034;-75
2020/12/28 10:31:59;;;;;;;9.37;3.97;;;4.60;88.80;;;;;;5009027;28;20047;-75
2020/12/28 10:34:25;;;;;;;8.17;4.00;;;4.80;89.50;;;;;;5009668;28;20069;-75
2020/12/28 10:36:52;;;;;;;11.73;5.40;;;5.40;89.20;;;;;;5009620;28;20080;-75
2020/12/28 10:39:18;;;;;;;8.50;3.47;;;6.00;88.20;;;;;;5009717;28;20085;-76
2020/12/28 10:41:43;;;;;;;9.67;5.00;;;6.50;87.30;;;;;;5011880;28;20034;-75
2020/12/28 10:44:09;;;;;;;7.33;3.50;;;6.80;85.80;;;;;;5007731;28;20087;-75
2020/12/28 10:46:37;;;;;;;8.33;3.60;;;6.80;84.00;;;;;;5009349;28;20029;-75
2020/12/28 10:49:07;;;;;;;7.33;3.43;;;6.70;84.60;;;;;;5010470;28;20041;-75
2020/12/28 10:51:33;;;;;;;7.40;3.40;;;6.80;85.00;;;;;;5009611;28;20034;-75
2020/12/28 10:53:59;;;;;;;7.80;3.80;;;6.80;84.70;;;;;;5009973;28;20034;-75
2020/12/28 10:56:29;;;;;;;9.27;4.20;;;6.80;84.20;;;;;;5011387;28;20049;-75
2020/12/28 10:58:56;;;;;;;7.47;3.47;;;6.80;84.10;;;;;;5021545;28;20041;-76
2020/12/28 11:01:26;;;;;;;7.70;3.17;;;6.60;82.90;;;;;;5018796;28;20403;-75
2020/12/28 11:03:52;;;;;;;7.30;3.10;;;6.40;82.70;;;;;;5008393;28;20049;-75
2020/12/28 11:06:19;;;;;;;8.17;3.93;;;6.20;83.20;;;;;;5008181;28;20033;-75
2020/12/28 11:08:45;;;;;;;6.60;3.10;;;6.00;83.20;;;;;;5008350;28;20133;-75
2020/12/28 11:11:11;;;;;;;8.50;3.60;;;5.90;83.00;;;;;;5009240;28;20064;-75
2020/12/28 11:13:37;;;;;;;7.53;3.47;;;5.70;83.40;;;;;;5005675;28;20121;-74
2020/12/28 11:16:03;;;;;;;9.27;3.40;;;5.60;84.00;;;;;;5009640;28;20045;-75
2020/12/28 11:18:29;;;;;;;7.50;3.53;;;5.50;83.80;;;;;;5008959;28;20030;-75
2020/12/28 11:20:54;;;;;;;8.17;3.77;;;5.40;83.90;;;;;;5007979;28;20104;-75
2020/12/28 11:23:20;;;;;;;9.43;3.87;;;5.30;84.10;;;;;;5009457;28;20030;-75
2020/12/28 11:25:46;;;;;;;7.13;3.30;;;5.20;84.10;;;;;;5009217;28;20073;-76
2020/12/28 11:28:12;;;;;;;8.77;3.63;;;5.20;84.40;;;;;;5012260;28;20053;-75
2020/12/28 11:30:37;;;;;;;7.87;3.77;;;5.20;84.90;;;;;;5019023;28;20117;-75
2020/12/28 11:33:03;;;;;;;8.53;4.03;;;5.20;84.80;;;;;;5011605;28;20126;-75
2020/12/28 11:35:30;;;;;;;7.10;3.40;;;5.20;84.90;;;;;;5010441;28;20042;-75
2020/12/28 11:37:56;;;;;;;9.90;3.83;;;5.20;85.20;;;;;;5008470;28;20045;-75
2020/12/28 11:40:23;;;;;;;7.27;3.63;;;5.30;85.00;;;;;;5009398;28;20077;-75
2020/12/28 11:42:49;;;;;;;8.20;3.80;;;5.30;84.80;;;;;;5009124;28;20050;-75
2020/12/28 11:45:15;;;;;;;8.47;3.63;;;5.20;84.50;;;;;;5008571;28;20034;-75
2020/12/28 11:47:41;;;;;;;7.70;3.50;;;5.20;84.50;;;;;;5007961;28;20450;-75
2020/12/28 11:50:07;;;;;;;8.00;3.37;;;5.20;84.80;;;;;;5007690;28;20050;-74
2020/12/28 11:52:33;;;;;;;8.00;3.37;;;5.20;86.00;;;;;;5009210;28;20069;-75
2020/12/28 11:54:59;;;;;;;8.17;3.90;;;5.40;86.30;;;;;;5008997;28;20069;-75
2020/12/28 11:57:25;;;;;;;8.67;4.00;;;5.60;85.70;;;;;;5007248;28;20033;-75
2020/12/28 11:59:51;;;;;;;8.27;3.97;;;5.70;84.70;;;;;;5008019;28;20053;-75
2020/12/28 12:02:20;;;;;;;8.40;3.53;;;5.70;84.40;;;;;;4995470;28;20042;-75
2020/12/28 12:04:49;;;;;;;9.03;4.07;;;5.70;84.50;;;;;;5013129;28;20036;-75
2020/12/28 12:07:20;;;;;;;9.33;3.60;;;5.50;84.00;;;;;;5013373;28;20167;-74
2020/12/28 12:09:48;;;;;;;8.57;3.90;;;5.50;83.80;;;;;;5009728;28;20590;-74
2020/12/28 12:12:14;;;;;;;8.30;3.80;;;5.50;84.20;;;;;;5009640;28;20276;-75
2020/12/28 12:14:40;;;;;;;8.93;4.17;;;5.50;84.50;;;;;;5011677;28;20048;-74
2020/12/28 12:17:06;;;;;;;7.87;3.70;;;5.50;84.70;;;;;;5010971;28;20033;-75
2020/12/28 12:19:32;;;;;;;8.13;3.60;;;5.50;84.40;;;;;;5010218;28;20056;-75
2020/12/28 12:21:58;;;;;;;9.17;3.83;;;5.50;84.20;;;;;;5015576;28;20036;-75
2020/12/28 12:24:24;;;;;;;7.90;4.07;;;5.40;84.90;;;;;;5008691;28;20021;-75
2020/12/28 12:26:50;;;;;;;7.90;3.40;;;5.40;84.60;;;;;;5011004;28;20470;-75
2020/12/28 12:29:16;;;;;;;7.90;4.03;;;5.30;84.40;;;;;;5011896;28;20117;-75
2020/12/28 12:31:41;;;;;;;7.93;3.90;;;5.40;84.90;;;;;;5010243;28;20065;-75
2020/12/28 12:34:07;;;;;;;8.73;4.07;;;5.40;84.80;;;;;;5009833;28;20054;-74
2020/12/28 12:36:34;;;;;;;9.37;4.27;;;5.40;84.70;;;;;;5011453;28;20038;-75
2020/12/28 12:38:59;;;;;;;8.50;4.13;;;5.40;84.60;;;;;;5011227;28;20586;-74
2020/12/28 12:41:25;;;;;;;9.67;3.93;;;5.30;85.00;;;;;;5011545;28;20141;-75
2020/12/28 12:43:51;;;;;;;8.90;4.00;;;5.40;85.00;;;;;;5011407;28;20033;-75
2020/12/28 12:46:17;;;;;;;7.53;3.90;;;5.40;85.10;;;;;;5010762;28;20399;-74
2020/12/28 12:48:44;;;;;;;8.80;3.77;;;5.40;84.90;;;;;;5011613;28;20030;-75
2020/12/28 12:51:10;;;;;;;8.60;3.77;;;5.40;84.70;;;;;;4977175;28;20030;-75
2020/12/28 12:53:36;;;;;;;9.93;4.00;;;5.40;84.70;;;;;;5011129;28;20038;-75
2020/12/28 12:56:02;;;;;;;9.70;4.37;;;5.40;84.70;;;;;;5009726;28;20046;-75
2020/12/28 12:58:28;;;;;;;8.20;4.07;;;5.40;85.00;;;;;;5012090;28;20041;-74
2020/12/28 13:00:54;;;;;;;8.47;4.20;;;5.40;85.10;;;;;;5014228;28;20137;-74
2020/12/28 13:03:20;;;;;;;8.43;3.77;;;5.40;85.00;;;;;;5016333;28;20072;-74
2020/12/28 13:05:45;;;;;;;7.87;3.53;;;5.40;85.00;;;;;;5008992;28;20065;-75
2020/12/28 13:08:11;;;;;;;8.70;4.03;;;5.40;85.60;;;;;;5021506;28;20502;-75
2020/12/28 13:10:37;;;;;;;8.33;4.00;;;5.40;84.90;;;;;;5020677;28;20052;-74